sensor_id;sensor_type;location;lat;lon;timestamp;temperature;humidity
62809;DHT22;48848;39.002;-94.584;2023-06-04T00:01:55;22.60;42.30
62809;DHT22;48848;39.002;-94.584;2023-06-04T00:04:20;22.50;42.00
62809;DHT22;48848;39.002;-94.584;2023-06-04T00:06:48;22.50;42.10
62809;DHT22;48848;39.002;-94.584;2023-06-04T00:09:14;22.50;42.00
62809;DHT22;48848;39.002;-94.584;2023-06-04T00:11:41;22.50;42.00
62809;DHT22;48848;39.002;-94.584;2023-06-04T00:14:06;22.50;42.00
62809;DHT22;48848;39.002;-94.584;2023-06-04T00:16:32;22.50;42.10
62809;DHT22;48848;39.002;-94.584;2023-06-04T00:19:01;22.50;41.80
62809;DHT22;48848;39.002;-94.584;2023-06-04T00:21:27;22.50;41.80
62809;DHT22;48848;39.002;-94.584;2023-06-04T00:23:52;22.50;41.80
62809;DHT22;48848;39.002;-94.584;2023-06-04T00:26:18;22.40;41.90
62809;DHT22;48848;39.002;-94.584;2023-06-04T00:28:44;22.40;41.90
62809;DHT22;48848;39.002;-94.584;2023-06-04T00:31:10;22.40;42.00
62809;DHT22;48848;39.002;-94.584;2023-06-04T00:33:41;22.40;41.90
62809;DHT22;48848;39.002;-94.584;2023-06-04T00:36:07;22.40;42.10
62809;DHT22;48848;39.002;-94.584;2023-06-04T00:38:33;22.40;41.90
62809;DHT22;48848;39.002;-94.584;2023-06-04T00:40:58;22.40;41.70
62809;DHT22;48848;39.002;-94.584;2023-06-04T00:43:24;22.40;41.40
62809;DHT22;48848;39.002;-94.584;2023-06-04T00:45:52;22.40;41.60
62809;DHT22;48848;39.002;-94.584;2023-06-04T00:48:18;22.30;41.80
62809;DHT22;48848;39.002;-94.584;2023-06-04T00:50:44;22.40;41.40
62809;DHT22;48848;39.002;-94.584;2023-06-04T00:53:11;22.40;41.80
62809;DHT22;48848;39.002;-94.584;2023-06-04T00:55:36;22.30;41.40
62809;DHT22;48848;39.002;-94.584;2023-06-04T00:58:02;22.40;41.60
62809;DHT22;48848;39.002;-94.584;2023-06-04T01:00:30;22.30;41.40
62809;DHT22;48848;39.002;-94.584;2023-06-04T01:02:57;22.30;41.70
62809;DHT22;48848;39.002;-94.584;2023-06-04T01:08:12;22.30;41.70
62809;DHT22;48848;39.002;-94.584;2023-06-04T01:10:49;22.30;41.40
62809;DHT22;48848;39.002;-94.584;2023-06-04T01:13:15;22.30;41.70
62809;DHT22;48848;39.002;-94.584;2023-06-04T01:15:41;22.20;41.40
62809;DHT22;48848;39.002;-94.584;2023-06-04T01:18:07;22.20;41.50
62809;DHT22;48848;39.002;-94.584;2023-06-04T01:20:38;22.20;41.50
62809;DHT22;48848;39.002;-94.584;2023-06-04T01:25:38;22.20;41.00
62809;DHT22;48848;39.002;-94.584;2023-06-04T01:28:07;22.20;41.00
62809;DHT22;48848;39.002;-94.584;2023-06-04T01:30:37;22.20;41.10
62809;DHT22;48848;39.002;-94.584;2023-06-04T01:33:12;22.20;41.20
62809;DHT22;48848;39.002;-94.584;2023-06-04T01:35:38;22.20;41.10
62809;DHT22;48848;39.002;-94.584;2023-06-04T01:38:05;22.20;41.30
62809;DHT22;48848;39.002;-94.584;2023-06-04T01:40:30;22.10;41.20
62809;DHT22;48848;39.002;-94.584;2023-06-04T01:42:57;22.10;41.20
62809;DHT22;48848;39.002;-94.584;2023-06-04T01:45:23;22.10;41.10
62809;DHT22;48848;39.002;-94.584;2023-06-04T01:47:49;22.10;41.10
62809;DHT22;48848;39.002;-94.584;2023-06-04T01:50:15;22.10;41.20
62809;DHT22;48848;39.002;-94.584;2023-06-04T01:52:42;22.10;40.90
62809;DHT22;48848;39.002;-94.584;2023-06-04T01:55:09;22.10;41.00
62809;DHT22;48848;39.002;-94.584;2023-06-04T01:57:37;22.00;41.10
62809;DHT22;48848;39.002;-94.584;2023-06-04T02:00:04;22.00;41.10
62809;DHT22;48848;39.002;-94.584;2023-06-04T02:02:33;22.00;41.00
62809;DHT22;48848;39.002;-94.584;2023-06-04T02:04:58;22.00;41.00
62809;DHT22;48848;39.002;-94.584;2023-06-04T02:07:25;22.00;40.80
62809;DHT22;48848;39.002;-94.584;2023-06-04T02:09:51;21.90;41.10
62809;DHT22;48848;39.002;-94.584;2023-06-04T02:12:17;22.00;40.70
62809;DHT22;48848;39.002;-94.584;2023-06-04T02:14:43;22.00;40.80
62809;DHT22;48848;39.002;-94.584;2023-06-04T02:17:10;22.00;40.60
62809;DHT22;48848;39.002;-94.584;2023-06-04T02:19:41;21.90;40.80
62809;DHT22;48848;39.002;-94.584;2023-06-04T02:22:18;21.90;40.60
62809;DHT22;48848;39.002;-94.584;2023-06-04T02:24:45;21.90;40.60
62809;DHT22;48848;39.002;-94.584;2023-06-04T02:27:11;21.90;40.60
62809;DHT22;48848;39.002;-94.584;2023-06-04T02:29:40;21.90;41.10
62809;DHT22;48848;39.002;-94.584;2023-06-04T02:32:06;21.90;41.30
62809;DHT22;48848;39.002;-94.584;2023-06-04T02:34:32;21.90;40.90
62809;DHT22;48848;39.002;-94.584;2023-06-04T02:36:59;21.80;40.70
62809;DHT22;48848;39.002;-94.584;2023-06-04T02:39:25;21.80;40.80
62809;DHT22;48848;39.002;-94.584;2023-06-04T02:41:51;21.80;40.90
62809;DHT22;48848;39.002;-94.584;2023-06-04T02:44:17;21.80;40.70
62809;DHT22;48848;39.002;-94.584;2023-06-04T02:46:43;21.80;40.80
62809;DHT22;48848;39.002;-94.584;2023-06-04T02:49:10;21.70;40.80
62809;DHT22;48848;39.002;-94.584;2023-06-04T02:51:39;21.70;40.50
62809;DHT22;48848;39.002;-94.584;2023-06-04T02:54:05;21.70;40.90
62809;DHT22;48848;39.002;-94.584;2023-06-04T02:56:31;21.70;40.50
62809;DHT22;48848;39.002;-94.584;2023-06-04T02:58:57;21.70;40.50
62809;DHT22;48848;39.002;-94.584;2023-06-04T03:01:23;21.70;40.40
62809;DHT22;48848;39.002;-94.584;2023-06-04T03:03:50;21.70;40.70
62809;DHT22;48848;39.002;-94.584;2023-06-04T03:06:16;21.70;40.90
62809;DHT22;48848;39.002;-94.584;2023-06-04T03:08:43;21.70;40.40
62809;DHT22;48848;39.002;-94.584;2023-06-04T03:11:08;21.60;40.50
62809;DHT22;48848;39.002;-94.584;2023-06-04T03:13:35;21.60;40.40
62809;DHT22;48848;39.002;-94.584;2023-06-04T03:16:01;21.60;40.50
62809;DHT22;48848;39.002;-94.584;2023-06-04T03:18:27;21.60;40.20
62809;DHT22;48848;39.002;-94.584;2023-06-04T03:20:53;21.60;40.60
62809;DHT22;48848;39.002;-94.584;2023-06-04T03:23:20;21.60;40.50
62809;DHT22;48848;39.002;-94.584;2023-06-04T03:25:46;21.60;40.60
62809;DHT22;48848;39.002;-94.584;2023-06-04T03:28:12;21.60;40.70
62809;DHT22;48848;39.002;-94.584;2023-06-04T03:30:39;21.50;40.80
62809;DHT22;48848;39.002;-94.584;2023-06-04T03:33:04;21.50;40.40
62809;DHT22;48848;39.002;-94.584;2023-06-04T03:35:30;21.50;40.40
62809;DHT22;48848;39.002;-94.584;2023-06-04T03:37:56;21.50;40.70
62809;DHT22;48848;39.002;-94.584;2023-06-04T03:40:22;21.50;40.40
62809;DHT22;48848;39.002;-94.584;2023-06-04T03:42:48;21.50;40.40
62809;DHT22;48848;39.002;-94.584;2023-06-04T03:45:14;21.50;40.30
62809;DHT22;48848;39.002;-94.584;2023-06-04T03:47:40;21.50;40.70
62809;DHT22;48848;39.002;-94.584;2023-06-04T03:50:06;21.40;40.30
62809;DHT22;48848;39.002;-94.584;2023-06-04T03:52:32;21.40;40.30
62809;DHT22;48848;39.002;-94.584;2023-06-04T03:54:58;21.40;40.30
62809;DHT22;48848;39.002;-94.584;2023-06-04T03:57:24;21.40;41.00
62809;DHT22;48848;39.002;-94.584;2023-06-04T03:59:50;21.40;40.50
62809;DHT22;48848;39.002;-94.584;2023-06-04T04:02:16;21.40;40.50
62809;DHT22;48848;39.002;-94.584;2023-06-04T04:04:44;21.40;40.40
62809;DHT22;48848;39.002;-94.584;2023-06-04T04:07:11;21.40;40.20
62809;DHT22;48848;39.002;-94.584;2023-06-04T04:09:37;21.40;40.50
62809;DHT22;48848;39.002;-94.584;2023-06-04T04:12:03;21.40;40.40
62809;DHT22;48848;39.002;-94.584;2023-06-04T04:14:29;21.30;40.50
62809;DHT22;48848;39.002;-94.584;2023-06-04T04:16:55;21.30;40.60
62809;DHT22;48848;39.002;-94.584;2023-06-04T04:19:21;21.30;40.80
62809;DHT22;48848;39.002;-94.584;2023-06-04T04:21:47;21.30;41.00
62809;DHT22;48848;39.002;-94.584;2023-06-04T04:24:25;21.30;41.20
62809;DHT22;48848;39.002;-94.584;2023-06-04T04:26:52;21.30;41.40
62809;DHT22;48848;39.002;-94.584;2023-06-04T04:29:22;21.20;41.30
62809;DHT22;48848;39.002;-94.584;2023-06-04T04:31:48;21.20;41.50
62809;DHT22;48848;39.002;-94.584;2023-06-04T04:34:14;21.20;41.70
62809;DHT22;48848;39.002;-94.584;2023-06-04T04:36:40;21.20;41.30
62809;DHT22;48848;39.002;-94.584;2023-06-04T04:39:06;21.20;41.40
62809;DHT22;48848;39.002;-94.584;2023-06-04T04:41:32;21.20;41.30
62809;DHT22;48848;39.002;-94.584;2023-06-04T04:44:04;21.20;41.30
62809;DHT22;48848;39.002;-94.584;2023-06-04T04:46:31;21.10;41.20
62809;DHT22;48848;39.002;-94.584;2023-06-04T04:48:57;21.20;41.20
62809;DHT22;48848;39.002;-94.584;2023-06-04T04:51:22;21.10;41.20
62809;DHT22;48848;39.002;-94.584;2023-06-04T04:53:48;21.10;41.20
62809;DHT22;48848;39.002;-94.584;2023-06-04T04:56:14;21.10;41.20
62809;DHT22;48848;39.002;-94.584;2023-06-04T04:58:40;21.10;41.00
62809;DHT22;48848;39.002;-94.584;2023-06-04T05:01:06;21.10;41.10
62809;DHT22;48848;39.002;-94.584;2023-06-04T05:03:31;21.00;41.20
62809;DHT22;48848;39.002;-94.584;2023-06-04T05:05:57;21.10;44.00
62809;DHT22;48848;39.002;-94.584;2023-06-04T05:08:23;21.40;43.70
62809;DHT22;48848;39.002;-94.584;2023-06-04T05:10:50;21.40;43.70
62809;DHT22;48848;39.002;-94.584;2023-06-04T05:13:16;21.50;44.00
62809;DHT22;48848;39.002;-94.584;2023-06-04T05:15:43;21.60;44.40
62809;DHT22;48848;39.002;-94.584;2023-06-04T05:18:09;21.70;44.80
62809;DHT22;48848;39.002;-94.584;2023-06-04T05:20:35;21.80;41.70
62809;DHT22;48848;39.002;-94.584;2023-06-04T05:23:03;21.80;40.70
62809;DHT22;48848;39.002;-94.584;2023-06-04T05:25:29;21.60;40.70
62809;DHT22;48848;39.002;-94.584;2023-06-04T05:27:58;21.50;40.70
62809;DHT22;48848;39.002;-94.584;2023-06-04T05:30:24;21.40;40.70
62809;DHT22;48848;39.002;-94.584;2023-06-04T05:32:50;21.30;40.50
62809;DHT22;48848;39.002;-94.584;2023-06-04T05:35:16;21.30;46.00
62809;DHT22;48848;39.002;-94.584;2023-06-04T05:37:42;21.40;50.20
62809;DHT22;48848;39.002;-94.584;2023-06-04T05:40:11;21.50;49.20
62809;DHT22;48848;39.002;-94.584;2023-06-04T05:42:37;21.70;47.50
62809;DHT22;48848;39.002;-94.584;2023-06-04T05:45:04;21.70;46.70
62809;DHT22;48848;39.002;-94.584;2023-06-04T05:47:30;21.80;46.60
62809;DHT22;48848;39.002;-94.584;2023-06-04T05:49:56;22.00;45.90
62809;DHT22;48848;39.002;-94.584;2023-06-04T05:52:23;21.90;46.20
62809;DHT22;48848;39.002;-94.584;2023-06-04T05:54:48;21.90;46.30
62809;DHT22;48848;39.002;-94.584;2023-06-04T05:57:14;21.90;46.20
62809;DHT22;48848;39.002;-94.584;2023-06-04T05:59:40;22.00;46.30
62809;DHT22;48848;39.002;-94.584;2023-06-04T06:02:06;22.10;46.00
62809;DHT22;48848;39.002;-94.584;2023-06-04T06:04:33;22.40;45.20
62809;DHT22;48848;39.002;-94.584;2023-06-04T06:06:58;22.60;45.00
62809;DHT22;48848;39.002;-94.584;2023-06-04T06:09:24;22.80;44.70
62809;DHT22;48848;39.002;-94.584;2023-06-04T06:11:50;22.70;41.90
62809;DHT22;48848;39.002;-94.584;2023-06-04T06:14:16;22.60;40.50
62809;DHT22;48848;39.002;-94.584;2023-06-04T06:16:42;22.30;40.00
62809;DHT22;48848;39.002;-94.584;2023-06-04T06:19:08;22.10;40.20
62809;DHT22;48848;39.002;-94.584;2023-06-04T06:21:34;22.00;40.30
62809;DHT22;48848;39.002;-94.584;2023-06-04T06:24:00;21.90;40.20
62809;DHT22;48848;39.002;-94.584;2023-06-04T06:26:26;21.70;40.10
62809;DHT22;48848;39.002;-94.584;2023-06-04T06:28:51;21.70;40.30
62809;DHT22;48848;39.002;-94.584;2023-06-04T06:31:17;21.70;48.40
62809;DHT22;48848;39.002;-94.584;2023-06-04T06:33:43;21.80;48.60
62809;DHT22;48848;39.002;-94.584;2023-06-04T06:36:12;21.90;47.30
62809;DHT22;48848;39.002;-94.584;2023-06-04T06:38:38;22.00;46.70
62809;DHT22;48848;39.002;-94.584;2023-06-04T06:41:04;22.20;45.80
62809;DHT22;48848;39.002;-94.584;2023-06-04T06:43:30;22.50;45.20
62809;DHT22;48848;39.002;-94.584;2023-06-04T06:45:57;22.50;44.90
62809;DHT22;48848;39.002;-94.584;2023-06-04T06:48:23;22.40;45.10
62809;DHT22;48848;39.002;-94.584;2023-06-04T06:50:49;22.30;45.60
62809;DHT22;48848;39.002;-94.584;2023-06-04T06:53:15;22.40;45.30
62809;DHT22;48848;39.002;-94.584;2023-06-04T06:55:40;22.40;45.50
62809;DHT22;48848;39.002;-94.584;2023-06-04T06:58:06;22.50;45.30
62809;DHT22;48848;39.002;-94.584;2023-06-04T07:00:32;22.40;45.70
62809;DHT22;48848;39.002;-94.584;2023-06-04T07:02:58;22.70;45.50
62809;DHT22;48848;39.002;-94.584;2023-06-04T07:05:24;22.70;45.20
62809;DHT22;48848;39.002;-94.584;2023-06-04T07:07:50;22.50;45.60
62809;DHT22;48848;39.002;-94.584;2023-06-04T07:10:15;22.70;45.80
62809;DHT22;48848;39.002;-94.584;2023-06-04T07:12:41;22.60;45.60
62809;DHT22;48848;39.002;-94.584;2023-06-04T07:15:07;22.70;45.70
62809;DHT22;48848;39.002;-94.584;2023-06-04T07:17:36;22.60;46.90
62809;DHT22;48848;39.002;-94.584;2023-06-04T07:20:02;22.60;46.20
62809;DHT22;48848;39.002;-94.584;2023-06-04T07:22:32;22.60;46.20
62809;DHT22;48848;39.002;-94.584;2023-06-04T07:24:58;22.60;46.20
62809;DHT22;48848;39.002;-94.584;2023-06-04T07:27:24;22.70;46.00
62809;DHT22;48848;39.002;-94.584;2023-06-04T07:29:50;22.80;45.90
62809;DHT22;48848;39.002;-94.584;2023-06-04T07:32:15;22.70;45.90
62809;DHT22;48848;39.002;-94.584;2023-06-04T07:34:41;22.80;45.90
62809;DHT22;48848;39.002;-94.584;2023-06-04T07:37:07;22.80;46.00
62809;DHT22;48848;39.002;-94.584;2023-06-04T07:39:35;22.80;46.20
62809;DHT22;48848;39.002;-94.584;2023-06-04T07:42:01;22.90;46.00
62809;DHT22;48848;39.002;-94.584;2023-06-04T07:44:27;22.90;46.50
62809;DHT22;48848;39.002;-94.584;2023-06-04T07:46:52;22.90;46.10
62809;DHT22;48848;39.002;-94.584;2023-06-04T07:49:18;22.80;46.20
62809;DHT22;48848;39.002;-94.584;2023-06-04T07:51:45;22.90;46.10
62809;DHT22;48848;39.002;-94.584;2023-06-04T07:54:11;23.20;41.90
62809;DHT22;48848;39.002;-94.584;2023-06-04T07:56:39;23.10;39.90
62809;DHT22;48848;39.002;-94.584;2023-06-04T07:59:05;23.00;39.40
62809;DHT22;48848;39.002;-94.584;2023-06-04T08:01:31;22.70;39.50
62809;DHT22;48848;39.002;-94.584;2023-06-04T08:03:57;22.60;39.30
62809;DHT22;48848;39.002;-94.584;2023-06-04T08:06:24;22.40;39.40
62809;DHT22;48848;39.002;-94.584;2023-06-04T08:08:52;22.30;45.80
62809;DHT22;48848;39.002;-94.584;2023-06-04T08:11:18;22.40;50.40
62809;DHT22;48848;39.002;-94.584;2023-06-04T08:13:43;22.40;47.20
62809;DHT22;48848;39.002;-94.584;2023-06-04T08:16:09;22.40;46.30
62809;DHT22;48848;39.002;-94.584;2023-06-04T08:18:41;22.40;45.90
62809;DHT22;48848;39.002;-94.584;2023-06-04T08:21:10;22.50;45.70
62809;DHT22;48848;39.002;-94.584;2023-06-04T08:23:42;22.40;45.70
62809;DHT22;48848;39.002;-94.584;2023-06-04T08:26:08;22.50;45.80
62809;DHT22;48848;39.002;-94.584;2023-06-04T08:28:33;22.50;45.70
62809;DHT22;48848;39.002;-94.584;2023-06-04T08:30:59;22.50;45.50
62809;DHT22;48848;39.002;-94.584;2023-06-04T08:33:25;22.40;45.70
62809;DHT22;48848;39.002;-94.584;2023-06-04T08:35:51;22.60;45.70
62809;DHT22;48848;39.002;-94.584;2023-06-04T08:38:17;22.60;45.60
62809;DHT22;48848;39.002;-94.584;2023-06-04T08:40:43;22.70;45.70
62809;DHT22;48848;39.002;-94.584;2023-06-04T08:43:09;22.70;45.60
62809;DHT22;48848;39.002;-94.584;2023-06-04T08:45:38;22.70;45.70
62809;DHT22;48848;39.002;-94.584;2023-06-04T08:48:05;22.70;45.90
62809;DHT22;48848;39.002;-94.584;2023-06-04T08:50:36;22.80;46.00
62809;DHT22;48848;39.002;-94.584;2023-06-04T08:53:02;22.80;45.80
62809;DHT22;48848;39.002;-94.584;2023-06-04T08:55:28;22.80;45.90
62809;DHT22;48848;39.002;-94.584;2023-06-04T08:57:54;23.00;45.70
62809;DHT22;48848;39.002;-94.584;2023-06-04T09:00:20;23.10;45.30
62809;DHT22;48848;39.002;-94.584;2023-06-04T09:02:46;23.00;45.50
62809;DHT22;48848;39.002;-94.584;2023-06-04T09:05:17;23.00;45.40
62809;DHT22;48848;39.002;-94.584;2023-06-04T09:07:44;23.00;45.60
62809;DHT22;48848;39.002;-94.584;2023-06-04T09:10:12;23.00;45.60
62809;DHT22;48848;39.002;-94.584;2023-06-04T09:12:40;23.10;45.40
62809;DHT22;48848;39.002;-94.584;2023-06-04T09:15:07;23.00;45.50
62809;DHT22;48848;39.002;-94.584;2023-06-04T09:17:33;23.10;45.90
62809;DHT22;48848;39.002;-94.584;2023-06-04T09:20:00;23.00;46.10
62809;DHT22;48848;39.002;-94.584;2023-06-04T09:22:35;23.00;46.20
62809;DHT22;48848;39.002;-94.584;2023-06-04T09:25:03;23.00;46.20
62809;DHT22;48848;39.002;-94.584;2023-06-04T09:27:36;23.00;46.20
62809;DHT22;48848;39.002;-94.584;2023-06-04T09:30:02;22.90;46.10
62809;DHT22;48848;39.002;-94.584;2023-06-04T09:32:29;23.10;45.50
62809;DHT22;48848;39.002;-94.584;2023-06-04T09:34:56;23.20;45.60
62809;DHT22;48848;39.002;-94.584;2023-06-04T09:37:34;23.30;45.30
62809;DHT22;48848;39.002;-94.584;2023-06-04T09:40:00;23.20;45.30
62809;DHT22;48848;39.002;-94.584;2023-06-04T09:42:26;23.30;45.20
62809;DHT22;48848;39.002;-94.584;2023-06-04T09:44:52;23.30;45.20
62809;DHT22;48848;39.002;-94.584;2023-06-04T09:47:18;23.10;45.80
62809;DHT22;48848;39.002;-94.584;2023-06-04T09:49:44;23.00;45.80
62809;DHT22;48848;39.002;-94.584;2023-06-04T09:52:10;23.10;46.70
62809;DHT22;48848;39.002;-94.584;2023-06-04T09:54:36;23.20;46.10
62809;DHT22;48848;39.002;-94.584;2023-06-04T09:57:03;23.10;46.40
62809;DHT22;48848;39.002;-94.584;2023-06-04T09:59:32;23.30;45.90
62809;DHT22;48848;39.002;-94.584;2023-06-04T10:02:02;23.20;45.90
62809;DHT22;48848;39.002;-94.584;2023-06-04T10:04:29;23.30;45.70
62809;DHT22;48848;39.002;-94.584;2023-06-04T10:06:55;23.40;45.20
62809;DHT22;48848;39.002;-94.584;2023-06-04T10:09:21;23.40;45.40
62809;DHT22;48848;39.002;-94.584;2023-06-04T10:11:54;23.40;45.40
62809;DHT22;48848;39.002;-94.584;2023-06-04T10:14:38;23.40;45.40
62809;DHT22;48848;39.002;-94.584;2023-06-04T10:17:07;23.30;46.10
62809;DHT22;48848;39.002;-94.584;2023-06-04T10:19:34;23.20;45.30
62809;DHT22;48848;39.002;-94.584;2023-06-04T10:22:04;23.30;46.00
62809;DHT22;48848;39.002;-94.584;2023-06-04T10:24:31;23.30;45.80
62809;DHT22;48848;39.002;-94.584;2023-06-04T10:27:00;23.30;46.10
62809;DHT22;48848;39.002;-94.584;2023-06-04T10:29:26;23.50;45.90
62809;DHT22;48848;39.002;-94.584;2023-06-04T10:31:55;23.30;45.80
62809;DHT22;48848;39.002;-94.584;2023-06-04T10:34:21;23.40;45.80
62809;DHT22;48848;39.002;-94.584;2023-06-04T10:36:47;23.50;45.60
62809;DHT22;48848;39.002;-94.584;2023-06-04T10:39:12;23.40;45.50
62809;DHT22;48848;39.002;-94.584;2023-06-04T10:41:38;23.50;45.20
62809;DHT22;48848;39.002;-94.584;2023-06-04T10:44:04;23.40;46.30
62809;DHT22;48848;39.002;-94.584;2023-06-04T10:46:37;23.30;45.60
62809;DHT22;48848;39.002;-94.584;2023-06-04T10:49:04;23.50;45.00
62809;DHT22;48848;39.002;-94.584;2023-06-04T10:51:30;23.50;45.20
62809;DHT22;48848;39.002;-94.584;2023-06-04T10:53:57;23.50;45.20
62809;DHT22;48848;39.002;-94.584;2023-06-04T10:56:26;23.50;45.90
62809;DHT22;48848;39.002;-94.584;2023-06-04T10:58:52;23.50;45.90
62809;DHT22;48848;39.002;-94.584;2023-06-04T11:01:27;23.50;45.60
62809;DHT22;48848;39.002;-94.584;2023-06-04T11:03:57;23.40;45.80
62809;DHT22;48848;39.002;-94.584;2023-06-04T11:06:23;23.40;46.00
62809;DHT22;48848;39.002;-94.584;2023-06-04T11:09:05;23.60;45.80
62809;DHT22;48848;39.002;-94.584;2023-06-04T11:11:31;23.40;45.60
62809;DHT22;48848;39.002;-94.584;2023-06-04T11:14:09;23.60;45.20
62809;DHT22;48848;39.002;-94.584;2023-06-04T11:16:37;23.60;45.20
62809;DHT22;48848;39.002;-94.584;2023-06-04T11:19:03;23.50;45.20
62809;DHT22;48848;39.002;-94.584;2023-06-04T11:21:29;23.50;45.30
62809;DHT22;48848;39.002;-94.584;2023-06-04T11:23:57;23.60;45.10
62809;DHT22;48848;39.002;-94.584;2023-06-04T11:26:29;23.70;44.90
62809;DHT22;48848;39.002;-94.584;2023-06-04T11:28:55;23.60;45.20
62809;DHT22;48848;39.002;-94.584;2023-06-04T11:31:21;23.60;47.00
62809;DHT22;48848;39.002;-94.584;2023-06-04T11:33:47;23.40;46.00
62809;DHT22;48848;39.002;-94.584;2023-06-04T11:36:28;23.60;45.60
62809;DHT22;48848;39.002;-94.584;2023-06-04T11:38:55;23.60;46.20
62809;DHT22;48848;39.002;-94.584;2023-06-04T11:41:23;23.60;45.30
62809;DHT22;48848;39.002;-94.584;2023-06-04T11:43:50;23.40;45.70
62809;DHT22;48848;39.002;-94.584;2023-06-04T11:46:16;23.30;45.70
62809;DHT22;48848;39.002;-94.584;2023-06-04T11:48:42;23.60;45.40
62809;DHT22;48848;39.002;-94.584;2023-06-04T11:51:08;23.70;45.10
62809;DHT22;48848;39.002;-94.584;2023-06-04T11:53:37;23.60;45.30
62809;DHT22;48848;39.002;-94.584;2023-06-04T11:56:04;23.50;45.40
62809;DHT22;48848;39.002;-94.584;2023-06-04T11:58:30;23.60;45.00
62809;DHT22;48848;39.002;-94.584;2023-06-04T12:00:56;23.40;45.60
62809;DHT22;48848;39.002;-94.584;2023-06-04T12:03:39;23.70;45.40
62809;DHT22;48848;39.002;-94.584;2023-06-04T12:06:15;23.60;45.60
62809;DHT22;48848;39.002;-94.584;2023-06-04T12:08:45;23.50;45.90
62809;DHT22;48848;39.002;-94.584;2023-06-04T12:11:24;23.60;45.80
62809;DHT22;48848;39.002;-94.584;2023-06-04T12:13:50;23.60;45.50
62809;DHT22;48848;39.002;-94.584;2023-06-04T12:16:16;23.60;46.10
62809;DHT22;48848;39.002;-94.584;2023-06-04T12:18:42;23.60;45.70
62809;DHT22;48848;39.002;-94.584;2023-06-04T12:21:26;23.50;45.60
62809;DHT22;48848;39.002;-94.584;2023-06-04T12:26:37;23.40;46.10
62809;DHT22;48848;39.002;-94.584;2023-06-04T12:31:38;23.60;45.60
62809;DHT22;48848;39.002;-94.584;2023-06-04T12:34:04;23.70;45.40
62809;DHT22;48848;39.002;-94.584;2023-06-04T12:36:30;23.60;45.60
62809;DHT22;48848;39.002;-94.584;2023-06-04T12:38:58;23.60;45.70
62809;DHT22;48848;39.002;-94.584;2023-06-04T12:41:26;23.60;46.00
62809;DHT22;48848;39.002;-94.584;2023-06-04T12:43:52;23.60;45.70
62809;DHT22;48848;39.002;-94.584;2023-06-04T12:46:17;23.70;45.70
62809;DHT22;48848;39.002;-94.584;2023-06-04T12:48:43;23.70;45.80
62809;DHT22;48848;39.002;-94.584;2023-06-04T12:51:09;23.70;45.60
62809;DHT22;48848;39.002;-94.584;2023-06-04T12:53:38;23.70;45.60
62809;DHT22;48848;39.002;-94.584;2023-06-04T12:56:05;23.70;45.80
62809;DHT22;48848;39.002;-94.584;2023-06-04T12:58:31;23.60;45.80
62809;DHT22;48848;39.002;-94.584;2023-06-04T13:00:57;23.60;45.80
62809;DHT22;48848;39.002;-94.584;2023-06-04T13:03:23;23.50;46.00
62809;DHT22;48848;39.002;-94.584;2023-06-04T13:05:49;23.60;46.00
62809;DHT22;48848;39.002;-94.584;2023-06-04T13:08:16;23.70;46.80
62809;DHT22;48848;39.002;-94.584;2023-06-04T13:10:42;23.60;45.80
62809;DHT22;48848;39.002;-94.584;2023-06-04T13:13:08;23.60;46.00
62809;DHT22;48848;39.002;-94.584;2023-06-04T13:15:34;23.60;45.80
62809;DHT22;48848;39.002;-94.584;2023-06-04T13:18:00;23.80;45.60
62809;DHT22;48848;39.002;-94.584;2023-06-04T13:20:26;23.80;45.50
62809;DHT22;48848;39.002;-94.584;2023-06-04T13:22:52;23.80;45.60
62809;DHT22;48848;39.002;-94.584;2023-06-04T13:25:18;23.80;45.70
62809;DHT22;48848;39.002;-94.584;2023-06-04T13:27:44;23.80;45.60
62809;DHT22;48848;39.002;-94.584;2023-06-04T13:30:10;23.90;45.50
62809;DHT22;48848;39.002;-94.584;2023-06-04T13:32:36;23.80;45.50
62809;DHT22;48848;39.002;-94.584;2023-06-04T13:35:02;23.90;45.40
62809;DHT22;48848;39.002;-94.584;2023-06-04T13:37:28;23.90;45.40
62809;DHT22;48848;39.002;-94.584;2023-06-04T13:39:53;23.80;45.70
62809;DHT22;48848;39.002;-94.584;2023-06-04T13:42:19;24.10;45.30
62809;DHT22;48848;39.002;-94.584;2023-06-04T13:44:45;24.10;45.40
62809;DHT22;48848;39.002;-94.584;2023-06-04T13:47:11;23.80;45.60
62809;DHT22;48848;39.002;-94.584;2023-06-04T13:49:37;24.00;45.40
62809;DHT22;48848;39.002;-94.584;2023-06-04T13:52:03;24.10;45.30
62809;DHT22;48848;39.002;-94.584;2023-06-04T13:54:28;24.00;45.50
62809;DHT22;48848;39.002;-94.584;2023-06-04T13:56:54;24.00;45.50
62809;DHT22;48848;39.002;-94.584;2023-06-04T13:59:20;24.00;45.70
62809;DHT22;48848;39.002;-94.584;2023-06-04T14:01:46;24.00;45.60
62809;DHT22;48848;39.002;-94.584;2023-06-04T14:04:12;24.00;45.70
62809;DHT22;48848;39.002;-94.584;2023-06-04T14:06:38;23.90;46.00
62809;DHT22;48848;39.002;-94.584;2023-06-04T14:09:04;24.10;45.90
62809;DHT22;48848;39.002;-94.584;2023-06-04T14:11:34;24.00;46.20
62809;DHT22;48848;39.002;-94.584;2023-06-04T14:14:00;24.10;46.20
62809;DHT22;48848;39.002;-94.584;2023-06-04T14:16:26;24.10;46.60
62809;DHT22;48848;39.002;-94.584;2023-06-04T14:18:52;24.20;46.10
62809;DHT22;48848;39.002;-94.584;2023-06-04T14:21:18;24.20;46.10
62809;DHT22;48848;39.002;-94.584;2023-06-04T14:23:44;24.10;46.00
62809;DHT22;48848;39.002;-94.584;2023-06-04T14:26:10;24.00;46.50
62809;DHT22;48848;39.002;-94.584;2023-06-04T14:28:36;24.00;46.50
62809;DHT22;48848;39.002;-94.584;2023-06-04T14:31:01;24.00;46.70
62809;DHT22;48848;39.002;-94.584;2023-06-04T14:33:28;24.10;46.90
62809;DHT22;48848;39.002;-94.584;2023-06-04T14:35:54;24.10;46.70
62809;DHT22;48848;39.002;-94.584;2023-06-04T14:38:20;24.10;47.00
62809;DHT22;48848;39.002;-94.584;2023-06-04T14:40:45;24.10;46.80
62809;DHT22;48848;39.002;-94.584;2023-06-04T14:43:11;24.10;47.50
62809;DHT22;48848;39.002;-94.584;2023-06-04T14:45:37;24.10;47.40
62809;DHT22;48848;39.002;-94.584;2023-06-04T14:48:06;24.10;47.70
62809;DHT22;48848;39.002;-94.584;2023-06-04T14:50:32;24.00;48.10
62809;DHT22;48848;39.002;-94.584;2023-06-04T14:52:58;24.10;47.80
62809;DHT22;48848;39.002;-94.584;2023-06-04T14:55:24;24.20;47.50
62809;DHT22;48848;39.002;-94.584;2023-06-04T14:57:50;24.20;47.60
62809;DHT22;48848;39.002;-94.584;2023-06-04T15:00:16;24.20;47.60
62809;DHT22;48848;39.002;-94.584;2023-06-04T15:02:42;24.20;48.30
62809;DHT22;48848;39.002;-94.584;2023-06-04T15:05:08;24.20;48.00
62809;DHT22;48848;39.002;-94.584;2023-06-04T15:07:34;24.30;48.00
62809;DHT22;48848;39.002;-94.584;2023-06-04T15:10:00;24.30;48.40
62809;DHT22;48848;39.002;-94.584;2023-06-04T15:12:27;24.30;48.10